Terminal Aerodrome Forecast
Issued by NWS

Home | Current Version | Previous Version | Text Only | Print | Product List | Glossary On
Versions: 1 2 3 4 5 6 7 8 9 10 11 12 13 14 15
328
FTUS41 KBTV 230551
TAFMSS
TAF
KMSS 230551Z 2306/2406 VRB03KT P6SM OVC025
     FM231500 22012G20KT P6SM VCSH OVC025
     FM232100 24012G20KT P6SM VCSH OVC035
     FM240000 26009KT P6SM BKN050=

USA.gov is the U.S. government's official web portal to all federal, state and local government web resources and services.